sensor_id;sensor_type;location;lat;lon;timestamp;P1;durP1;ratioP1;P2;durP2;ratioP2
27025;SDS011;14565;48.626;8.978;2023-06-01T00:00:31;5.45;;;2.90;;
27025;SDS011;14565;48.626;8.978;2023-06-01T00:02:57;9.23;;;3.35;;
27025;SDS011;14565;48.626;8.978;2023-06-01T00:05:22;4.72;;;3.10;;
27025;SDS011;14565;48.626;8.978;2023-06-01T00:07:48;8.07;;;3.20;;
27025;SDS011;14565;48.626;8.978;2023-06-01T00:10:13;6.65;;;3.10;;
27025;SDS011;14565;48.626;8.978;2023-06-01T00:12:39;5.90;;;2.85;;
27025;SDS011;14565;48.626;8.978;2023-06-01T00:15:05;9.07;;;2.80;;
27025;SDS011;14565;48.626;8.978;2023-06-01T00:17:32;9.30;;;3.05;;
27025;SDS011;14565;48.626;8.978;2023-06-01T00:19:57;7.90;;;3.03;;
27025;SDS011;14565;48.626;8.978;2023-06-01T00:22:26;5.45;;;2.65;;
27025;SDS011;14565;48.626;8.978;2023-06-01T00:24:54;5.85;;;3.13;;
27025;SDS011;14565;48.626;8.978;2023-06-01T00:27:20;5.55;;;3.08;;
27025;SDS011;14565;48.626;8.978;2023-06-01T00:29:46;9.00;;;3.80;;
27025;SDS011;14565;48.626;8.978;2023-06-01T00:32:11;10.57;;;3.88;;
27025;SDS011;14565;48.626;8.978;2023-06-01T00:34:37;9.43;;;3.70;;
27025;SDS011;14565;48.626;8.978;2023-06-01T00:37:03;8.30;;;3.00;;
27025;SDS011;14565;48.626;8.978;2023-06-01T00:39:29;4.03;;;2.75;;
27025;SDS011;14565;48.626;8.978;2023-06-01T00:41:54;4.95;;;2.88;;
27025;SDS011;14565;48.626;8.978;2023-06-01T00:44:20;7.28;;;2.85;;
27025;SDS011;14565;48.626;8.978;2023-06-01T00:46:45;4.85;;;2.65;;
27025;SDS011;14565;48.626;8.978;2023-06-01T00:49:11;5.30;;;2.60;;
27025;SDS011;14565;48.626;8.978;2023-06-01T00:51:37;4.88;;;3.13;;
27025;SDS011;14565;48.626;8.978;2023-06-01T00:54:03;6.28;;;2.75;;
27025;SDS011;14565;48.626;8.978;2023-06-01T00:56:28;6.18;;;3.03;;
27025;SDS011;14565;48.626;8.978;2023-06-01T00:58:56;5.43;;;2.70;;
27025;SDS011;14565;48.626;8.978;2023-06-01T01:01:22;6.47;;;2.95;;
27025;SDS011;14565;48.626;8.978;2023-06-01T01:03:49;6.32;;;3.05;;
27025;SDS011;14565;48.626;8.978;2023-06-01T01:06:39;6.53;;;3.10;;
27025;SDS011;14565;48.626;8.978;2023-06-01T01:12:11;6.10;;;2.90;;
27025;SDS011;14565;48.626;8.978;2023-06-01T01:14:55;7.03;;;3.13;;
27025;SDS011;14565;48.626;8.978;2023-06-01T01:20:10;4.85;;;2.90;;
27025;SDS011;14565;48.626;8.978;2023-06-01T01:28:32;5.35;;;2.63;;
27025;SDS011;14565;48.626;8.978;2023-06-01T01:30:59;6.18;;;3.03;;
27025;SDS011;14565;48.626;8.978;2023-06-01T01:33:26;10.25;;;3.20;;
27025;SDS011;14565;48.626;8.978;2023-06-01T01:35:52;8.00;;;2.95;;
27025;SDS011;14565;48.626;8.978;2023-06-01T01:38:18;6.95;;;3.10;;
27025;SDS011;14565;48.626;8.978;2023-06-01T01:40:44;6.22;;;2.97;;
27025;SDS011;14565;48.626;8.978;2023-06-01T01:43:09;6.50;;;2.97;;
27025;SDS011;14565;48.626;8.978;2023-06-01T01:45:35;5.78;;;2.53;;
27025;SDS011;14565;48.626;8.978;2023-06-01T01:48:09;5.85;;;2.47;;
27025;SDS011;14565;48.626;8.978;2023-06-01T01:50:53;5.75;;;3.10;;
27025;SDS011;14565;48.626;8.978;2023-06-01T01:53:23;5.70;;;2.58;;
27025;SDS011;14565;48.626;8.978;2023-06-01T01:58:20;6.57;;;2.60;;
27025;SDS011;14565;48.626;8.978;2023-06-01T02:00:46;8.70;;;3.33;;
27025;SDS011;14565;48.626;8.978;2023-06-01T02:03:13;5.85;;;2.58;;
27025;SDS011;14565;48.626;8.978;2023-06-01T02:08:06;6.35;;;2.80;;
27025;SDS011;14565;48.626;8.978;2023-06-01T02:10:31;6.07;;;3.08;;
27025;SDS011;14565;48.626;8.978;2023-06-01T02:12:57;8.18;;;2.92;;
27025;SDS011;14565;48.626;8.978;2023-06-01T02:15:22;4.72;;;2.67;;
27025;SDS011;14565;48.626;8.978;2023-06-01T02:17:48;6.78;;;2.90;;
27025;SDS011;14565;48.626;8.978;2023-06-01T02:20:13;8.20;;;2.92;;
27025;SDS011;14565;48.626;8.978;2023-06-01T02:22:39;6.38;;;2.70;;
27025;SDS011;14565;48.626;8.978;2023-06-01T02:25:05;8.45;;;3.28;;
27025;SDS011;14565;48.626;8.978;2023-06-01T02:27:31;6.45;;;2.83;;
27025;SDS011;14565;48.626;8.978;2023-06-01T02:29:57;7.20;;;2.78;;
27025;SDS011;14565;48.626;8.978;2023-06-01T02:32:22;6.20;;;2.72;;
27025;SDS011;14565;48.626;8.978;2023-06-01T02:34:48;7.15;;;3.17;;
27025;SDS011;14565;48.626;8.978;2023-06-01T02:37:13;6.50;;;2.78;;
27025;SDS011;14565;48.626;8.978;2023-06-01T02:39:39;7.53;;;2.83;;
27025;SDS011;14565;48.626;8.978;2023-06-01T02:42:05;5.53;;;2.75;;
27025;SDS011;14565;48.626;8.978;2023-06-01T02:44:31;9.40;;;2.95;;
27025;SDS011;14565;48.626;8.978;2023-06-01T02:46:56;5.75;;;2.72;;
27025;SDS011;14565;48.626;8.978;2023-06-01T02:49:22;6.28;;;3.42;;
27025;SDS011;14565;48.626;8.978;2023-06-01T02:51:47;6.43;;;3.20;;
27025;SDS011;14565;48.626;8.978;2023-06-01T02:54:13;6.75;;;2.72;;
27025;SDS011;14565;48.626;8.978;2023-06-01T02:56:39;8.48;;;3.20;;
27025;SDS011;14565;48.626;8.978;2023-06-01T02:59:04;7.40;;;2.83;;
27025;SDS011;14565;48.626;8.978;2023-06-01T03:01:31;6.43;;;2.60;;
27025;SDS011;14565;48.626;8.978;2023-06-01T03:04:00;6.95;;;3.03;;
27025;SDS011;14565;48.626;8.978;2023-06-01T03:06:29;6.43;;;2.97;;
27025;SDS011;14565;48.626;8.978;2023-06-01T03:08:56;7.68;;;3.30;;
27025;SDS011;14565;48.626;8.978;2023-06-01T03:11:25;7.78;;;3.05;;
27025;SDS011;14565;48.626;8.978;2023-06-01T03:13:51;9.02;;;3.15;;
27025;SDS011;14565;48.626;8.978;2023-06-01T03:16:17;7.75;;;2.72;;
27025;SDS011;14565;48.626;8.978;2023-06-01T03:18:42;8.10;;;2.90;;
27025;SDS011;14565;48.626;8.978;2023-06-01T03:21:08;5.93;;;2.92;;
27025;SDS011;14565;48.626;8.978;2023-06-01T03:23:34;5.00;;;2.72;;
27025;SDS011;14565;48.626;8.978;2023-06-01T03:25:59;14.25;;;3.40;;
27025;SDS011;14565;48.626;8.978;2023-06-01T03:28:25;8.13;;;3.30;;
27025;SDS011;14565;48.626;8.978;2023-06-01T03:30:51;7.47;;;3.22;;
27025;SDS011;14565;48.626;8.978;2023-06-01T03:33:16;5.50;;;2.72;;
27025;SDS011;14565;48.626;8.978;2023-06-01T03:35:42;7.55;;;2.70;;
27025;SDS011;14565;48.626;8.978;2023-06-01T03:38:09;8.60;;;3.28;;
27025;SDS011;14565;48.626;8.978;2023-06-01T03:40:35;7.47;;;3.00;;
27025;SDS011;14565;48.626;8.978;2023-06-01T03:43:00;6.18;;;3.20;;
27025;SDS011;14565;48.626;8.978;2023-06-01T03:45:27;6.40;;;2.90;;
27025;SDS011;14565;48.626;8.978;2023-06-01T03:47:53;8.88;;;3.28;;
27025;SDS011;14565;48.626;8.978;2023-06-01T03:50:18;6.18;;;2.70;;
27025;SDS011;14565;48.626;8.978;2023-06-01T03:52:44;7.60;;;2.83;;
27025;SDS011;14565;48.626;8.978;2023-06-01T03:55:10;6.35;;;2.67;;
27025;SDS011;14565;48.626;8.978;2023-06-01T03:57:38;5.95;;;2.75;;
27025;SDS011;14565;48.626;8.978;2023-06-01T04:00:04;4.72;;;2.58;;
27025;SDS011;14565;48.626;8.978;2023-06-01T04:02:44;5.93;;;2.92;;
27025;SDS011;14565;48.626;8.978;2023-06-01T04:05:11;6.55;;;2.58;;
27025;SDS011;14565;48.626;8.978;2023-06-01T04:07:41;6.60;;;2.60;;
27025;SDS011;14565;48.626;8.978;2023-06-01T04:10:11;10.80;;;3.00;;
27025;SDS011;14565;48.626;8.978;2023-06-01T04:12:39;7.93;;;2.83;;
27025;SDS011;14565;48.626;8.978;2023-06-01T04:15:05;6.60;;;2.80;;
27025;SDS011;14565;48.626;8.978;2023-06-01T04:17:31;6.70;;;2.65;;
27025;SDS011;14565;48.626;8.978;2023-06-01T04:19:57;5.72;;;2.60;;
27025;SDS011;14565;48.626;8.978;2023-06-01T04:22:22;6.35;;;2.75;;
27025;SDS011;14565;48.626;8.978;2023-06-01T04:24:48;6.82;;;2.53;;
27025;SDS011;14565;48.626;8.978;2023-06-01T04:27:14;5.90;;;2.85;;
27025;SDS011;14565;48.626;8.978;2023-06-01T04:29:42;4.38;;;2.63;;
27025;SDS011;14565;48.626;8.978;2023-06-01T04:32:09;4.88;;;2.67;;
27025;SDS011;14565;48.626;8.978;2023-06-01T04:34:35;6.35;;;2.80;;
27025;SDS011;14565;48.626;8.978;2023-06-01T04:37:03;4.97;;;2.80;;
27025;SDS011;14565;48.626;8.978;2023-06-01T04:39:30;9.30;;;2.72;;
27025;SDS011;14565;48.626;8.978;2023-06-01T04:41:55;6.07;;;2.47;;
27025;SDS011;14565;48.626;8.978;2023-06-01T04:44:22;5.63;;;2.78;;
27025;SDS011;14565;48.626;8.978;2023-06-01T04:46:48;6.07;;;2.80;;
27025;SDS011;14565;48.626;8.978;2023-06-01T04:49:16;8.35;;;2.67;;
27025;SDS011;14565;48.626;8.978;2023-06-01T04:51:43;6.25;;;2.65;;
27025;SDS011;14565;48.626;8.978;2023-06-01T04:54:09;7.88;;;2.70;;
27025;SDS011;14565;48.626;8.978;2023-06-01T04:56:35;4.97;;;2.58;;
27025;SDS011;14565;48.626;8.978;2023-06-01T04:59:01;8.55;;;2.53;;
27025;SDS011;14565;48.626;8.978;2023-06-01T05:01:26;5.50;;;2.40;;
27025;SDS011;14565;48.626;8.978;2023-06-01T05:03:54;4.78;;;2.40;;
27025;SDS011;14565;48.626;8.978;2023-06-01T05:06:20;6.35;;;2.67;;
27025;SDS011;14565;48.626;8.978;2023-06-01T05:08:47;4.47;;;2.40;;
27025;SDS011;14565;48.626;8.978;2023-06-01T05:11:13;4.45;;;2.60;;
27025;SDS011;14565;48.626;8.978;2023-06-01T05:13:39;5.68;;;2.78;;
27025;SDS011;14565;48.626;8.978;2023-06-01T05:16:06;6.95;;;2.85;;
27025;SDS011;14565;48.626;8.978;2023-06-01T05:18:32;5.55;;;2.58;;
27025;SDS011;14565;48.626;8.978;2023-06-01T05:20:59;7.45;;;2.58;;
27025;SDS011;14565;48.626;8.978;2023-06-01T05:23:25;8.65;;;3.00;;
27025;SDS011;14565;48.626;8.978;2023-06-01T05:25:52;7.50;;;2.88;;
27025;SDS011;14565;48.626;8.978;2023-06-01T05:28:19;6.03;;;2.83;;
27025;SDS011;14565;48.626;8.978;2023-06-01T05:30:45;8.63;;;2.60;;
27025;SDS011;14565;48.626;8.978;2023-06-01T05:33:11;5.43;;;3.10;;
27025;SDS011;14565;48.626;8.978;2023-06-01T05:35:37;6.57;;;2.88;;
27025;SDS011;14565;48.626;8.978;2023-06-01T05:38:03;8.95;;;3.40;;
27025;SDS011;14565;48.626;8.978;2023-06-01T05:40:29;6.10;;;3.35;;
27025;SDS011;14565;48.626;8.978;2023-06-01T05:42:55;4.78;;;2.95;;
27025;SDS011;14565;48.626;8.978;2023-06-01T05:45:36;4.93;;;2.95;;
27025;SDS011;14565;48.626;8.978;2023-06-01T05:48:02;5.13;;;3.10;;
27025;SDS011;14565;48.626;8.978;2023-06-01T05:50:28;5.72;;;2.72;;
27025;SDS011;14565;48.626;8.978;2023-06-01T05:52:54;5.70;;;2.75;;
27025;SDS011;14565;48.626;8.978;2023-06-01T05:55:20;4.20;;;2.65;;
27025;SDS011;14565;48.626;8.978;2023-06-01T05:57:45;5.03;;;2.47;;
27025;SDS011;14565;48.626;8.978;2023-06-01T06:00:16;7.93;;;2.88;;
27025;SDS011;14565;48.626;8.978;2023-06-01T06:02:48;4.20;;;2.63;;
27025;SDS011;14565;48.626;8.978;2023-06-01T06:05:14;9.48;;;2.65;;
27025;SDS011;14565;48.626;8.978;2023-06-01T06:07:40;8.30;;;2.83;;
27025;SDS011;14565;48.626;8.978;2023-06-01T06:10:06;15.10;;;3.00;;
27025;SDS011;14565;48.626;8.978;2023-06-01T06:12:32;16.97;;;2.90;;
27025;SDS011;14565;48.626;8.978;2023-06-01T06:14:58;7.82;;;2.88;;
27025;SDS011;14565;48.626;8.978;2023-06-01T06:17:29;8.37;;;2.93;;
27025;SDS011;14565;48.626;8.978;2023-06-01T06:19:55;3.97;;;2.60;;
27025;SDS011;14565;48.626;8.978;2023-06-01T06:22:23;9.88;;;3.00;;
27025;SDS011;14565;48.626;8.978;2023-06-01T06:25:05;7.07;;;2.47;;
27025;SDS011;14565;48.626;8.978;2023-06-01T06:27:36;9.30;;;2.60;;
27025;SDS011;14565;48.626;8.978;2023-06-01T06:30:02;4.60;;;2.50;;
27025;SDS011;14565;48.626;8.978;2023-06-01T06:32:28;6.00;;;2.30;;
27025;SDS011;14565;48.626;8.978;2023-06-01T06:34:54;7.00;;;2.70;;
27025;SDS011;14565;48.626;8.978;2023-06-01T06:37:20;6.73;;;2.87;;
27025;SDS011;14565;48.626;8.978;2023-06-01T06:39:45;11.47;;;3.40;;
27025;SDS011;14565;48.626;8.978;2023-06-01T06:42:11;9.38;;;2.58;;
27025;SDS011;14565;48.626;8.978;2023-06-01T06:44:40;8.13;;;2.88;;
27025;SDS011;14565;48.626;8.978;2023-06-01T06:47:05;4.85;;;2.70;;
27025;SDS011;14565;48.626;8.978;2023-06-01T06:49:31;7.00;;;2.67;;
27025;SDS011;14565;48.626;8.978;2023-06-01T06:51:56;8.67;;;3.07;;
27025;SDS011;14565;48.626;8.978;2023-06-01T06:54:22;5.27;;;2.87;;
27025;SDS011;14565;48.626;8.978;2023-06-01T06:56:48;6.78;;;3.53;;
27025;SDS011;14565;48.626;8.978;2023-06-01T06:59:13;5.88;;;3.13;;
27025;SDS011;14565;48.626;8.978;2023-06-01T07:01:39;6.45;;;2.95;;
27025;SDS011;14565;48.626;8.978;2023-06-01T07:04:05;11.25;;;3.08;;
27025;SDS011;14565;48.626;8.978;2023-06-01T07:06:31;9.13;;;3.00;;
27025;SDS011;14565;48.626;8.978;2023-06-01T07:08:58;8.10;;;3.47;;
27025;SDS011;14565;48.626;8.978;2023-06-01T07:11:23;6.22;;;2.90;;
27025;SDS011;14565;48.626;8.978;2023-06-01T07:13:52;7.10;;;3.33;;
27025;SDS011;14565;48.626;8.978;2023-06-01T07:16:20;6.30;;;3.60;;
27025;SDS011;14565;48.626;8.978;2023-06-01T07:18:46;7.30;;;3.00;;
27025;SDS011;14565;48.626;8.978;2023-06-01T07:21:11;6.53;;;3.60;;
27025;SDS011;14565;48.626;8.978;2023-06-01T07:23:37;6.97;;;3.50;;
27025;SDS011;14565;48.626;8.978;2023-06-01T07:26:02;9.38;;;3.50;;
27025;SDS011;14565;48.626;8.978;2023-06-01T07:28:28;10.27;;;3.90;;
27025;SDS011;14565;48.626;8.978;2023-06-01T07:30:55;11.13;;;4.35;;
27025;SDS011;14565;48.626;8.978;2023-06-01T07:37:03;11.50;;;4.28;;
27025;SDS011;14565;48.626;8.978;2023-06-01T07:39:29;14.38;;;5.20;;
27025;SDS011;14565;48.626;8.978;2023-06-01T07:41:58;6.53;;;4.00;;
27025;SDS011;14565;48.626;8.978;2023-06-01T07:44:24;8.10;;;3.78;;
27025;SDS011;14565;48.626;8.978;2023-06-01T07:46:49;28.08;;;5.43;;
27025;SDS011;14565;48.626;8.978;2023-06-01T07:53:05;9.35;;;3.70;;
27025;SDS011;14565;48.626;8.978;2023-06-01T07:55:41;8.38;;;3.65;;
27025;SDS011;14565;48.626;8.978;2023-06-01T07:58:18;8.35;;;3.70;;
27025;SDS011;14565;48.626;8.978;2023-06-01T08:01:18;10.65;;;4.20;;
27025;SDS011;14565;48.626;8.978;2023-06-01T08:03:53;8.30;;;4.03;;
27025;SDS011;14565;48.626;8.978;2023-06-01T08:06:27;7.53;;;4.30;;
27025;SDS011;14565;48.626;8.978;2023-06-01T08:09:24;9.25;;;3.65;;
27025;SDS011;14565;48.626;8.978;2023-06-01T08:14:51;11.73;;;4.45;;
27025;SDS011;14565;48.626;8.978;2023-06-01T08:17:17;8.80;;;4.45;;
27025;SDS011;14565;48.626;8.978;2023-06-01T08:19:43;7.75;;;4.15;;
27025;SDS011;14565;48.626;8.978;2023-06-01T08:22:12;8.38;;;3.63;;
27025;SDS011;14565;48.626;8.978;2023-06-01T08:24:38;10.05;;;4.00;;
27025;SDS011;14565;48.626;8.978;2023-06-01T08:29:44;12.05;;;3.70;;
27025;SDS011;14565;48.626;8.978;2023-06-01T08:32:11;10.80;;;3.72;;
27025;SDS011;14565;48.626;8.978;2023-06-01T08:34:37;7.35;;;3.58;;
27025;SDS011;14565;48.626;8.978;2023-06-01T08:37:03;7.22;;;3.97;;
27025;SDS011;14565;48.626;8.978;2023-06-01T08:39:28;7.53;;;4.22;;
27025;SDS011;14565;48.626;8.978;2023-06-01T08:42:01;7.60;;;4.10;;
27025;SDS011;14565;48.626;8.978;2023-06-01T08:44:37;20.55;;;4.85;;
27025;SDS011;14565;48.626;8.978;2023-06-01T08:47:14;7.78;;;3.97;;
27025;SDS011;14565;48.626;8.978;2023-06-01T08:50:11;8.02;;;3.90;;
27025;SDS011;14565;48.626;8.978;2023-06-01T08:52:39;33.70;;;5.70;;
27025;SDS011;14565;48.626;8.978;2023-06-01T08:55:29;11.15;;;4.85;;
27025;SDS011;14565;48.626;8.978;2023-06-01T09:05:04;13.88;;;4.38;;
27025;SDS011;14565;48.626;8.978;2023-06-01T09:07:50;10.65;;;4.32;;
27025;SDS011;14565;48.626;8.978;2023-06-01T09:10:34;7.47;;;4.15;;
27025;SDS011;14565;48.626;8.978;2023-06-01T09:13:08;7.80;;;4.22;;
27025;SDS011;14565;48.626;8.978;2023-06-01T09:15:57;6.55;;;4.25;;
27025;SDS011;14565;48.626;8.978;2023-06-01T09:18:23;5.88;;;4.10;;
27025;SDS011;14565;48.626;8.978;2023-06-01T09:20:54;7.30;;;4.47;;
27025;SDS011;14565;48.626;8.978;2023-06-01T09:23:38;7.70;;;4.70;;
27025;SDS011;14565;48.626;8.978;2023-06-01T09:26:11;7.40;;;4.65;;
27025;SDS011;14565;48.626;8.978;2023-06-01T09:31:47;9.05;;;4.50;;
27025;SDS011;14565;48.626;8.978;2023-06-01T09:34:43;7.63;;;4.38;;
27025;SDS011;14565;48.626;8.978;2023-06-01T09:43:58;10.52;;;5.15;;
27025;SDS011;14565;48.626;8.978;2023-06-01T09:46:35;27.50;;;5.45;;
27025;SDS011;14565;48.626;8.978;2023-06-01T09:49:22;9.82;;;4.85;;
27025;SDS011;14565;48.626;8.978;2023-06-01T09:54:40;13.07;;;5.07;;
27025;SDS011;14565;48.626;8.978;2023-06-01T09:57:11;31.40;;;7.05;;
27025;SDS011;14565;48.626;8.978;2023-06-01T10:02:44;18.50;;;5.60;;
27025;SDS011;14565;48.626;8.978;2023-06-01T10:05:11;10.93;;;4.60;;
27025;SDS011;14565;48.626;8.978;2023-06-01T10:07:37;8.50;;;5.28;;
27025;SDS011;14565;48.626;8.978;2023-06-01T10:10:09;10.80;;;5.15;;
27025;SDS011;14565;48.626;8.978;2023-06-01T10:12:57;10.35;;;4.50;;
27025;SDS011;14565;48.626;8.978;2023-06-01T10:15:40;11.85;;;4.55;;
27025;SDS011;14565;48.626;8.978;2023-06-01T10:18:27;9.55;;;4.97;;
27025;SDS011;14565;48.626;8.978;2023-06-01T10:21:00;6.13;;;4.50;;
27025;SDS011;14565;48.626;8.978;2023-06-01T10:23:31;11.55;;;4.90;;
27025;SDS011;14565;48.626;8.978;2023-06-01T10:25:57;6.80;;;4.25;;
27025;SDS011;14565;48.626;8.978;2023-06-01T10:28:32;10.65;;;4.65;;
27025;SDS011;14565;48.626;8.978;2023-06-01T10:34:15;10.40;;;4.95;;
27025;SDS011;14565;48.626;8.978;2023-06-01T10:41:24;6.63;;;4.47;;
27025;SDS011;14565;48.626;8.978;2023-06-01T10:43:49;11.45;;;4.93;;
27025;SDS011;14565;48.626;8.978;2023-06-01T10:46:51;5.57;;;4.28;;
27025;SDS011;14565;48.626;8.978;2023-06-01T10:52:24;11.15;;;4.75;;
27025;SDS011;14565;48.626;8.978;2023-06-01T10:54:52;8.40;;;4.90;;
27025;SDS011;14565;48.626;8.978;2023-06-01T10:57:19;10.65;;;4.97;;
27025;SDS011;14565;48.626;8.978;2023-06-01T11:11:00;54.00;;;9.00;;
27025;SDS011;14565;48.626;8.978;2023-06-01T11:13:34;11.15;;;5.60;;
27025;SDS011;14565;48.626;8.978;2023-06-01T11:18:46;113.25;;;20.02;;
27025;SDS011;14565;48.626;8.978;2023-06-01T11:21:23;54.38;;;8.52;;
27025;SDS011;14565;48.626;8.978;2023-06-01T11:23:53;21.00;;;5.63;;
27025;SDS011;14565;48.626;8.978;2023-06-01T11:26:21;8.43;;;4.63;;
27025;SDS011;14565;48.626;8.978;2023-06-01T11:28:49;9.88;;;4.65;;
27025;SDS011;14565;48.626;8.978;2023-06-01T11:31:17;9.63;;;4.90;;
27025;SDS011;14565;48.626;8.978;2023-06-01T11:36:25;6.47;;;4.45;;
27025;SDS011;14565;48.626;8.978;2023-06-01T11:38:52;11.50;;;5.10;;
27025;SDS011;14565;48.626;8.978;2023-06-01T11:41:21;6.37;;;4.27;;
27025;SDS011;14565;48.626;8.978;2023-06-01T11:43:54;7.75;;;4.50;;
27025;SDS011;14565;48.626;8.978;2023-06-01T11:46:21;9.00;;;5.00;;
27025;SDS011;14565;48.626;8.978;2023-06-01T11:49:03;6.75;;;4.68;;
27025;SDS011;14565;48.626;8.978;2023-06-01T11:51:33;8.38;;;4.35;;
27025;SDS011;14565;48.626;8.978;2023-06-01T11:54:04;7.35;;;4.50;;
27025;SDS011;14565;48.626;8.978;2023-06-01T11:58:57;9.30;;;4.50;;
27025;SDS011;14565;48.626;8.978;2023-06-01T12:01:24;8.45;;;4.93;;
27025;SDS011;14565;48.626;8.978;2023-06-01T12:03:51;8.95;;;4.57;;
27025;SDS011;14565;48.626;8.978;2023-06-01T12:06:20;8.07;;;4.25;;
27025;SDS011;14565;48.626;8.978;2023-06-01T12:08:47;7.28;;;4.38;;
27025;SDS011;14565;48.626;8.978;2023-06-01T12:11:21;7.53;;;4.22;;
27025;SDS011;14565;48.626;8.978;2023-06-01T12:13:51;6.85;;;4.47;;
27025;SDS011;14565;48.626;8.978;2023-06-01T12:16:21;9.10;;;4.72;;
27025;SDS011;14565;48.626;8.978;2023-06-01T12:18:47;9.43;;;5.40;;
27025;SDS011;14565;48.626;8.978;2023-06-01T12:21:14;12.10;;;4.35;;
27025;SDS011;14565;48.626;8.978;2023-06-01T12:23:41;8.73;;;4.95;;
27025;SDS011;14565;48.626;8.978;2023-06-01T12:26:07;6.53;;;4.47;;
27025;SDS011;14565;48.626;8.978;2023-06-01T12:28:52;8.27;;;4.30;;
27025;SDS011;14565;48.626;8.978;2023-06-01T12:31:20;6.43;;;4.63;;
27025;SDS011;14565;48.626;8.978;2023-06-01T12:33:46;8.13;;;4.78;;
27025;SDS011;14565;48.626;8.978;2023-06-01T12:36:34;7.53;;;4.53;;
27025;SDS011;14565;48.626;8.978;2023-06-01T12:39:01;8.95;;;4.40;;
27025;SDS011;14565;48.626;8.978;2023-06-01T12:41:29;8.98;;;4.50;;
27025;SDS011;14565;48.626;8.978;2023-06-01T12:43:55;10.48;;;4.68;;
27025;SDS011;14565;48.626;8.978;2023-06-01T12:46:25;9.20;;;4.45;;
27025;SDS011;14565;48.626;8.978;2023-06-01T12:48:53;5.90;;;4.38;;
27025;SDS011;14565;48.626;8.978;2023-06-01T12:51:22;9.57;;;4.68;;
27025;SDS011;14565;48.626;8.978;2023-06-01T12:53:48;10.85;;;4.60;;
27025;SDS011;14565;48.626;8.978;2023-06-01T12:56:14;6.82;;;4.50;;
27025;SDS011;14565;48.626;8.978;2023-06-01T12:58:40;8.88;;;4.55;;
27025;SDS011;14565;48.626;8.978;2023-06-01T13:01:06;6.95;;;4.53;;
27025;SDS011;14565;48.626;8.978;2023-06-01T13:03:32;10.00;;;4.40;;
27025;SDS011;14565;48.626;8.978;2023-06-01T13:05:58;8.32;;;4.53;;
27025;SDS011;14565;48.626;8.978;2023-06-01T13:08:25;7.95;;;4.55;;
27025;SDS011;14565;48.626;8.978;2023-06-01T13:10:51;7.90;;;4.70;;
27025;SDS011;14565;48.626;8.978;2023-06-01T13:13:17;7.00;;;4.65;;
27025;SDS011;14565;48.626;8.978;2023-06-01T13:15:43;8.27;;;4.63;;
27025;SDS011;14565;48.626;8.978;2023-06-01T13:18:10;9.27;;;4.97;;
27025;SDS011;14565;48.626;8.978;2023-06-01T13:20:43;12.65;;;4.45;;
27025;SDS011;14565;48.626;8.978;2023-06-01T13:23:08;7.60;;;4.72;;
27025;SDS011;14565;48.626;8.978;2023-06-01T13:25:36;11.48;;;4.57;;
27025;SDS011;14565;48.626;8.978;2023-06-01T13:28:03;17.13;;;5.63;;
27025;SDS011;14565;48.626;8.978;2023-06-01T13:30:29;9.50;;;4.63;;
27025;SDS011;14565;48.626;8.978;2023-06-01T13:32:58;7.35;;;4.30;;
27025;SDS011;14565;48.626;8.978;2023-06-01T13:35:24;11.65;;;4.93;;
27025;SDS011;14565;48.626;8.978;2023-06-01T13:37:50;7.18;;;4.90;;
27025;SDS011;14565;48.626;8.978;2023-06-01T13:40:19;7.32;;;4.45;;
27025;SDS011;14565;48.626;8.978;2023-06-01T13:42:49;7.68;;;4.55;;
27025;SDS011;14565;48.626;8.978;2023-06-01T13:45:18;8.38;;;4.70;;
27025;SDS011;14565;48.626;8.978;2023-06-01T13:47:47;8.75;;;5.05;;
27025;SDS011;14565;48.626;8.978;2023-06-01T13:50:17;8.38;;;4.75;;
27025;SDS011;14565;48.626;8.978;2023-06-01T13:52:43;8.95;;;5.03;;
27025;SDS011;14565;48.626;8.978;2023-06-01T13:55:11;9.27;;;4.53;;
27025;SDS011;14565;48.626;8.978;2023-06-01T13:57:37;7.80;;;5.00;;
27025;SDS011;14565;48.626;8.978;2023-06-01T14:00:05;6.93;;;4.53;;
27025;SDS011;14565;48.626;8.978;2023-06-01T14:02:33;10.13;;;5.05;;
27025;SDS011;14565;48.626;8.978;2023-06-01T14:05:02;14.05;;;5.32;;
27025;SDS011;14565;48.626;8.978;2023-06-01T14:07:29;9.80;;;4.75;;
27025;SDS011;14565;48.626;8.978;2023-06-01T14:09:55;6.80;;;4.68;;
27025;SDS011;14565;48.626;8.978;2023-06-01T14:14:50;9.00;;;4.20;;
27025;SDS011;14565;48.626;8.978;2023-06-01T14:17:16;16.92;;;5.20;;
27025;SDS011;14565;48.626;8.978;2023-06-01T14:19:42;11.93;;;4.50;;
27025;SDS011;14565;48.626;8.978;2023-06-01T14:22:11;22.92;;;5.13;;
27025;SDS011;14565;48.626;8.978;2023-06-01T14:24:39;7.30;;;4.40;;
27025;SDS011;14565;48.626;8.978;2023-06-01T14:27:05;6.80;;;4.25;;
27025;SDS011;14565;48.626;8.978;2023-06-01T14:29:31;12.10;;;4.43;;
27025;SDS011;14565;48.626;8.978;2023-06-01T14:32:00;11.50;;;4.40;;
27025;SDS011;14565;48.626;8.978;2023-06-01T14:34:25;14.32;;;4.35;;
27025;SDS011;14565;48.626;8.978;2023-06-01T14:36:51;11.35;;;4.45;;
27025;SDS011;14565;48.626;8.978;2023-06-01T14:39:17;6.88;;;4.25;;
27025;SDS011;14565;48.626;8.978;2023-06-01T14:41:43;9.95;;;4.60;;
27025;SDS011;14565;48.626;8.978;2023-06-01T14:47:34;5.57;;;4.10;;
27025;SDS011;14565;48.626;8.978;2023-06-01T14:50:00;7.55;;;4.53;;
27025;SDS011;14565;48.626;8.978;2023-06-01T14:52:26;7.28;;;4.57;;
27025;SDS011;14565;48.626;8.978;2023-06-01T14:54:51;32.08;;;5.93;;
27025;SDS011;14565;48.626;8.978;2023-06-01T14:57:17;10.35;;;3.95;;
27025;SDS011;14565;48.626;8.978;2023-06-01T14:59:43;11.25;;;4.53;;
27025;SDS011;14565;48.626;8.978;2023-06-01T15:02:08;17.55;;;5.32;;
27025;SDS011;14565;48.626;8.978;2023-06-01T15:04:34;11.60;;;4.70;;
27025;SDS011;14565;48.626;8.978;2023-06-01T15:07:00;10.98;;;4.47;;
27025;SDS011;14565;48.626;8.978;2023-06-01T15:09:26;15.18;;;4.72;;
27025;SDS011;14565;48.626;8.978;2023-06-01T15:11:51;7.97;;;4.00;;
27025;SDS011;14565;48.626;8.978;2023-06-01T15:14:17;9.68;;;4.28;;
27025;SDS011;14565;48.626;8.978;2023-06-01T15:16:43;52.33;;;6.55;;
27025;SDS011;14565;48.626;8.978;2023-06-01T15:19:09;15.05;;;4.10;;
27025;SDS011;14565;48.626;8.978;2023-06-01T15:21:35;15.60;;;4.70;;
27025;SDS011;14565;48.626;8.978;2023-06-01T15:24:01;14.57;;;4.22;;
27025;SDS011;14565;48.626;8.978;2023-06-01T15:26:27;7.38;;;3.80;;
27025;SDS011;14565;48.626;8.978;2023-06-01T15:28:52;8.30;;;3.70;;
27025;SDS011;14565;48.626;8.978;2023-06-01T15:31:18;7.95;;;3.70;;
27025;SDS011;14565;48.626;8.978;2023-06-01T15:33:44;7.60;;;3.83;;
27025;SDS011;14565;48.626;8.978;2023-06-01T15:36:10;9.13;;;3.90;;
27025;SDS011;14565;48.626;8.978;2023-06-01T15:38:36;8.07;;;3.97;;
27025;SDS011;14565;48.626;8.978;2023-06-01T15:41:02;10.48;;;4.00;;
27025;SDS011;14565;48.626;8.978;2023-06-01T15:43:31;7.97;;;3.90;;
27025;SDS011;14565;48.626;8.978;2023-06-01T15:45:59;11.68;;;3.55;;
27025;SDS011;14565;48.626;8.978;2023-06-01T15:48:28;6.85;;;3.25;;
27025;SDS011;14565;48.626;8.978;2023-06-01T15:50:53;6.95;;;3.65;;
27025;SDS011;14565;48.626;8.978;2023-06-01T15:53:19;6.15;;;3.47;;
27025;SDS011;14565;48.626;8.978;2023-06-01T15:55:45;7.53;;;3.67;;
27025;SDS011;14565;48.626;8.978;2023-06-01T15:58:11;8.77;;;3.30;;
27025;SDS011;14565;48.626;8.978;2023-06-01T16:00:37;14.43;;;3.80;;
27025;SDS011;14565;48.626;8.978;2023-06-01T16:03:02;12.38;;;3.53;;
27025;SDS011;14565;48.626;8.978;2023-06-01T16:05:30;12.45;;;3.65;;
27025;SDS011;14565;48.626;8.978;2023-06-01T16:08:01;19.95;;;4.00;;
27025;SDS011;14565;48.626;8.978;2023-06-01T16:10:26;6.50;;;3.00;;
27025;SDS011;14565;48.626;8.978;2023-06-01T16:12:54;6.45;;;2.85;;
27025;SDS011;14565;48.626;8.978;2023-06-01T16:15:20;5.65;;;3.10;;
27025;SDS011;14565;48.626;8.978;2023-06-01T16:17:46;19.20;;;3.67;;
27025;SDS011;14565;48.626;8.978;2023-06-01T16:20:12;7.05;;;2.72;;